Marcell, MN (56657)

7:41 AM CDT on August 29, 2014 (GMT -0500)
Bigfork | Change Station
CLOSE
Current Station
Personal Weather Station
Location: Bigfork, MN
Elevation: 1375 ft
Nearby Weather Stations

Elev 1375 ft 47.78 °N, 93.65 °W | Updated 2 minutes ago

Rain
Rain
62.3 °F
Feels Like 62.3 °F
N
0.0
Wind Variable Wind from ENE
Gusts 0.0 mph

Today
High -- | Low -- °F
--% Chance of Precip.
Yesterday
High -- | Low -- °F
Precip. -- in
6:29 AM 8:00 PM
Waxing Crescent, 14% visible
Pressure 29.84 in
Visibility 4.0 miles
Clouds Overcast 400 ft
Dew Point 62 °F
Humidity 97%
Rainfall 0.42 in
Snow Depth Not available.
UV 0 out of 12
Pollen 8.30 out of 12
Air Quality Not available.
Flu Activity Not available.
METAR KFOZ 291233Z AUTO 00000KT 4SM +RA OVC004 16/16 A2984 RMK AO2 P0023

More Conditions Fewer Conditions

Pressure 29.84 in
Visibility 4.0 miles
Clouds Overcast 400 ft
Dew Point 62 °F
Humidity 97%
Rainfall 0.42 in
Snow Depth Not available.
UV 0 out of 12
Pollen 8.30 out of 12
Air Quality Not available.
Flu Activity Not available.
METAR KFOZ 291233Z AUTO 00000KT 4SM +RA OVC004 16/16 A2984 RMK AO2 P0023

More Conditions Fewer Conditions

10-Day Weather Forecast

Almanac

Astronomy

Aug. 29, 2014 Rise Set
Actual Time 6:29 AM CDT 8:00 PM CDT
Civil Twilight 5:56 AM CDT 8:33 PM CDT
Nautical Twilight 5:17 AM CDT 9:12 PM CDT
Astronomical Twilight 4:35 AM CDT 9:54 PM CDT
Moon 10:38 AM CDT 9:38 PM CDT
Length of Visible Light 14h 36m
Length of Day
13h 31m
Tomorrow will be 3m 17s shorter.
Waxing Crescent, 14% of the Moon is Illuminated
Today
Waxing Crescent
Sep 2
First Quarter
Sep 8
Full
Sep 15
Last Quarter
Sep 24
New

Today's Extremes

State Highs State Lows

Community

WunderPhotos

Upload Photos

1,748,221 photos uploaded!

Nearby

Snow Depth

Station Depth Elevation
No new snow has been reported.

Earthquake Activity

City Distance Mag. Time & Date
No recent earthquake activity has been reported nearby.
Minimum magnitude displayed is 2.5.

Coastal Water Temperatures

Place Temperature
No Stations Reporting

Nearby Weather Stations